KGOK

Guthrie-Edmond Regional Airport

Guthrie, Oklahoma, USA
METAR KGOK 110453Z AUTO 17005KT 10SM CLR 01/M06 A3030 RMK AO2 SLP268 T00061056
Observed Flight Rules
Dec-11 @ 04:53 UTC (40 minutes ago) Visual Flight Rules
Wind Visibility Clouds
170° at 5 knots 10 miles
  • Clear skies
Temperatures Readings
Current 1°C / 34°F
Dewpoint -6°C / 21°F
Humidity 60%
Altimeter 30.3" Hg
Pressure 1026.8 hPa
Elevation 324
METAR KGOK 110453Z AUTO 17005KT 10SM CLR 01/M06 A3030 RMK AO2 SLP268 T00061056
Observed Flight Rules
Dec-11 @ 04:53 UTC
(40 minutes ago)
VFR
Wind Visibility
170° at 5 knots 10 miles
Clouds
  • Clear skies
Temperature Dewpoint
1°C / 34°F -6°C / 21°F
Humidity Altimeter Pressure
60% 30.3" Hg 1026.8 hPa